﻿<?xml version="1.0" encoding="UTF-8" standalone="no" ?>
<gpx xmlns="http://www.topografix.com/GPX/1/1" creator="CompeGPS" version="1.1" xmlns:xsi="http://www.w3.org/2001/XMLSchema-instance" xsi:schemaLocation="http://www.topografix.com/GPX/1/1 http://www.topografix.com/GPX/1/1/gpx.xsd http://www.garmin.com/xmlschemas/GpxExtensions/v3 http://www.garmin.com/xmlschemas/GpxExtensionsv3.xsd http://www.garmin.com/xmlschemas/TrackPointExtension/v1 http://www.garmin.com/xmlschemas/TrackPointExtensionv1.xsd" xmlns:gpxtpx="http://www.garmin.com/xmlschemas/TrackPointExtension/v1">
  <metadata>
    <link href="http://www.compegps.com">
      <text>CompeGPS TEAM, SL</text>
    </link>
    <time>2013-05-03T14:58:05Z</time>
    <bounds maxlat="42.833517" maxlon="1.007540" minlat="42.819939" minlon="0.985285"/>
  </metadata>
<wpt lat="42.833517" lon="0.986732">
  <ele>889</ele>
  <name>La Pucelle</name>
</wpt>
<wpt lat="42.824180" lon="0.989702">
  <ele>1050</ele>
  <name>Bif. GR10</name>
</wpt>
<wpt lat="42.829720" lon="0.995983">
  <ele>1540</ele>
  <name>Cab. de Besset</name>
</wpt>
<wpt lat="42.828669" lon="1.004122">
  <ele>1821</ele>
  <name>Cab. du Clot du Lac</name>
</wpt>
<wpt lat="42.819939" lon="1.006661">
  <ele>2033</ele>
  <name>Cap de Raspe</name>
</wpt>
  <trk>
    <name>Cap de Raspe</name>
    <trkseg>
      <trkpt lat="42.833517" lon="0.986732">
        <ele>889.4</ele>
        <time>2013-04-21T14:19:42Z</time>
        <name>La Pucelle</name>
      </trkpt>
      <trkpt lat="42.833367" lon="0.986885">
        <ele>890.8</ele>
        <time>2013-04-21T14:20:08Z</time>
      </trkpt>
      <trkpt lat="42.833263" lon="0.987016">
        <ele>892.2</ele>
        <time>2013-04-21T14:20:18Z</time>
      </trkpt>
      <trkpt lat="42.833117" lon="0.987041">
        <ele>896.1</ele>
        <time>2013-04-21T14:20:30Z</time>
      </trkpt>
      <trkpt lat="42.832965" lon="0.987068">
        <ele>899.9</ele>
        <time>2013-04-21T14:20:43Z</time>
      </trkpt>
      <trkpt lat="42.832809" lon="0.987111">
        <ele>903.8</ele>
        <time>2013-04-21T14:20:56Z</time>
      </trkpt>
      <trkpt lat="42.832664" lon="0.987103">
        <ele>907.1</ele>
        <time>2013-04-21T14:21:06Z</time>
      </trkpt>
      <trkpt lat="42.832498" lon="0.987073">
        <ele>910.0</ele>
        <time>2013-04-21T14:21:20Z</time>
      </trkpt>
      <trkpt lat="42.832327" lon="0.987045">
        <ele>913.4</ele>
        <time>2013-04-21T14:21:34Z</time>
      </trkpt>
      <trkpt lat="42.832168" lon="0.986999">
        <ele>916.3</ele>
        <time>2013-04-21T14:21:47Z</time>
      </trkpt>
      <trkpt lat="42.832016" lon="0.986957">
        <ele>919.2</ele>
        <time>2013-04-21T14:21:58Z</time>
      </trkpt>
      <trkpt lat="42.831859" lon="0.986878">
        <ele>922.5</ele>
        <time>2013-04-21T14:22:10Z</time>
      </trkpt>
      <trkpt lat="42.831709" lon="0.986799">
        <ele>924.5</ele>
        <time>2013-04-21T14:22:22Z</time>
      </trkpt>
      <trkpt lat="42.831569" lon="0.986674">
        <ele>928.8</ele>
        <time>2013-04-21T14:22:41Z</time>
      </trkpt>
      <trkpt lat="42.831467" lon="0.986548">
        <ele>932.1</ele>
        <time>2013-04-21T14:22:52Z</time>
      </trkpt>
      <trkpt lat="42.831324" lon="0.986414">
        <ele>936.0</ele>
        <time>2013-04-21T14:23:06Z</time>
      </trkpt>
      <trkpt lat="42.831159" lon="0.986318">
        <ele>940.3</ele>
        <time>2013-04-21T14:23:20Z</time>
      </trkpt>
      <trkpt lat="42.830951" lon="0.986248">
        <ele>944.2</ele>
        <time>2013-04-21T14:23:38Z</time>
      </trkpt>
      <trkpt lat="42.830812" lon="0.986126">
        <ele>946.1</ele>
        <time>2013-04-21T14:23:51Z</time>
      </trkpt>
      <trkpt lat="42.830674" lon="0.986022">
        <ele>948.0</ele>
        <time>2013-04-21T14:24:02Z</time>
      </trkpt>
      <trkpt lat="42.830520" lon="0.985929">
        <ele>950.4</ele>
        <time>2013-04-21T14:24:13Z</time>
      </trkpt>
      <trkpt lat="42.830386" lon="0.985827">
        <ele>953.8</ele>
        <time>2013-04-21T14:24:25Z</time>
      </trkpt>
      <trkpt lat="42.830250" lon="0.985694">
        <ele>957.1</ele>
        <time>2013-04-21T14:24:38Z</time>
      </trkpt>
      <trkpt lat="42.830072" lon="0.985605">
        <ele>960.5</ele>
        <time>2013-04-21T14:24:52Z</time>
      </trkpt>
      <trkpt lat="42.829950" lon="0.985507">
        <ele>963.4</ele>
        <time>2013-04-21T14:25:07Z</time>
      </trkpt>
      <trkpt lat="42.829855" lon="0.985424">
        <ele>965.3</ele>
        <time>2013-04-21T14:25:17Z</time>
      </trkpt>
      <trkpt lat="42.829746" lon="0.985355">
        <ele>967.2</ele>
        <time>2013-04-21T14:25:25Z</time>
      </trkpt>
      <trkpt lat="42.829605" lon="0.985314">
        <ele>969.6</ele>
        <time>2013-04-21T14:25:33Z</time>
      </trkpt>
      <trkpt lat="42.829446" lon="0.985285">
        <ele>972.0</ele>
        <time>2013-04-21T14:25:44Z</time>
      </trkpt>
      <trkpt lat="42.829315" lon="0.985309">
        <ele>974.0</ele>
        <time>2013-04-21T14:25:52Z</time>
      </trkpt>
      <trkpt lat="42.829183" lon="0.985414">
        <ele>976.4</ele>
        <time>2013-04-21T14:26:01Z</time>
      </trkpt>
      <trkpt lat="42.829060" lon="0.985554">
        <ele>978.8</ele>
        <time>2013-04-21T14:26:12Z</time>
      </trkpt>
      <trkpt lat="42.828899" lon="0.985651">
        <ele>980.7</ele>
        <time>2013-04-21T14:26:27Z</time>
      </trkpt>
      <trkpt lat="42.828735" lon="0.985760">
        <ele>980.2</ele>
        <time>2013-04-21T14:26:38Z</time>
      </trkpt>
      <trkpt lat="42.828611" lon="0.985870">
        <ele>980.7</ele>
        <time>2013-04-21T14:26:47Z</time>
      </trkpt>
      <trkpt lat="42.828509" lon="0.985981">
        <ele>981.2</ele>
        <time>2013-04-21T14:26:58Z</time>
      </trkpt>
      <trkpt lat="42.828427" lon="0.986168">
        <ele>983.1</ele>
        <time>2013-04-21T14:27:10Z</time>
      </trkpt>
      <trkpt lat="42.828329" lon="0.986308">
        <ele>984.5</ele>
        <time>2013-04-21T14:27:19Z</time>
      </trkpt>
      <trkpt lat="42.828207" lon="0.986442">
        <ele>985.0</ele>
        <time>2013-04-21T14:27:31Z</time>
      </trkpt>
      <trkpt lat="42.828081" lon="0.986573">
        <ele>985.0</ele>
        <time>2013-04-21T14:27:42Z</time>
      </trkpt>
      <trkpt lat="42.827949" lon="0.986667">
        <ele>985.0</ele>
        <time>2013-04-21T14:27:52Z</time>
      </trkpt>
      <trkpt lat="42.827818" lon="0.986780">
        <ele>986.9</ele>
        <time>2013-04-21T14:28:01Z</time>
      </trkpt>
      <trkpt lat="42.827699" lon="0.986851">
        <ele>987.4</ele>
        <time>2013-04-21T14:28:10Z</time>
      </trkpt>
      <trkpt lat="42.827556" lon="0.986982">
        <ele>989.3</ele>
        <time>2013-04-21T14:28:24Z</time>
      </trkpt>
      <trkpt lat="42.827418" lon="0.987097">
        <ele>990.8</ele>
        <time>2013-04-21T14:28:37Z</time>
      </trkpt>
      <trkpt lat="42.827319" lon="0.987209">
        <ele>992.7</ele>
        <time>2013-04-21T14:28:48Z</time>
      </trkpt>
      <trkpt lat="42.827199" lon="0.987310">
        <ele>994.6</ele>
        <time>2013-04-21T14:28:59Z</time>
      </trkpt>
      <trkpt lat="42.827089" lon="0.987383">
        <ele>997.0</ele>
        <time>2013-04-21T14:29:11Z</time>
      </trkpt>
      <trkpt lat="42.826974" lon="0.987470">
        <ele>999.0</ele>
        <time>2013-04-21T14:29:22Z</time>
      </trkpt>
      <trkpt lat="42.826867" lon="0.987610">
        <ele>1000.4</ele>
        <time>2013-04-21T14:29:30Z</time>
      </trkpt>
      <trkpt lat="42.826753" lon="0.987737">
        <ele>1002.3</ele>
        <time>2013-04-21T14:29:39Z</time>
      </trkpt>
      <trkpt lat="42.826672" lon="0.987880">
        <ele>1005.2</ele>
        <time>2013-04-21T14:29:49Z</time>
      </trkpt>
      <trkpt lat="42.826526" lon="0.987976">
        <ele>1007.6</ele>
        <time>2013-04-21T14:29:58Z</time>
      </trkpt>
      <trkpt lat="42.826436" lon="0.988155">
        <ele>1011.0</ele>
        <time>2013-04-21T14:30:11Z</time>
      </trkpt>
      <trkpt lat="42.826319" lon="0.988180">
        <ele>1011.9</ele>
        <time>2013-04-21T14:30:23Z</time>
      </trkpt>
      <trkpt lat="42.826211" lon="0.988248">
        <ele>1013.8</ele>
        <time>2013-04-21T14:30:34Z</time>
      </trkpt>
      <trkpt lat="42.826109" lon="0.988326">
        <ele>1015.3</ele>
        <time>2013-04-21T14:30:43Z</time>
      </trkpt>
      <trkpt lat="42.826006" lon="0.988417">
        <ele>1017.2</ele>
        <time>2013-04-21T14:30:52Z</time>
      </trkpt>
      <trkpt lat="42.825900" lon="0.988495">
        <ele>1018.7</ele>
        <time>2013-04-21T14:31:01Z</time>
      </trkpt>
      <trkpt lat="42.825809" lon="0.988565">
        <ele>1020.6</ele>
        <time>2013-04-21T14:31:11Z</time>
      </trkpt>
      <trkpt lat="42.825704" lon="0.988625">
        <ele>1021.5</ele>
        <time>2013-04-21T14:31:19Z</time>
      </trkpt>
      <trkpt lat="42.825602" lon="0.988696">
        <ele>1023.5</ele>
        <time>2013-04-21T14:31:28Z</time>
      </trkpt>
      <trkpt lat="42.825503" lon="0.988758">
        <ele>1025.4</ele>
        <time>2013-04-21T14:31:37Z</time>
      </trkpt>
      <trkpt lat="42.825411" lon="0.988832">
        <ele>1027.3</ele>
        <time>2013-04-21T14:31:48Z</time>
      </trkpt>
      <trkpt lat="42.825321" lon="0.988891">
        <ele>1029.2</ele>
        <time>2013-04-21T14:31:57Z</time>
      </trkpt>
      <trkpt lat="42.825214" lon="0.988936">
        <ele>1030.7</ele>
        <time>2013-04-21T14:32:06Z</time>
      </trkpt>
      <trkpt lat="42.825113" lon="0.989011">
        <ele>1032.1</ele>
        <time>2013-04-21T14:32:14Z</time>
      </trkpt>
      <trkpt lat="42.824803" lon="0.989182">
        <ele>1045.0</ele>
        <time>2013-04-21T14:55:28Z</time>
      </trkpt>
      <trkpt lat="42.824582" lon="0.989360">
        <ele>1048.6</ele>
        <time>2013-04-21T14:55:35Z</time>
      </trkpt>
      <trkpt lat="42.824368" lon="0.989529">
        <ele>1051.6</ele>
        <time>2013-04-21T14:55:54Z</time>
      </trkpt>
      <trkpt lat="42.824180" lon="0.989702">
        <ele>1055.0</ele>
        <time>2013-04-21T14:56:14Z</time>
        <name>Bif. GR10</name>
      </trkpt>
      <trkpt lat="42.824221" lon="0.989851">
        <ele>1062.9</ele>
        <time>2013-04-21T14:56:21Z</time>
      </trkpt>
      <trkpt lat="42.824311" lon="0.989776">
        <ele>1061.5</ele>
        <time>2013-04-21T14:56:28Z</time>
      </trkpt>
      <trkpt lat="42.824543" lon="0.989823">
        <ele>1070.0</ele>
        <time>2013-04-21T14:56:36Z</time>
      </trkpt>
      <trkpt lat="42.824851" lon="0.989916">
        <ele>1082.6</ele>
        <time>2013-04-21T14:56:44Z</time>
      </trkpt>
      <trkpt lat="42.824963" lon="0.989975">
        <ele>1088.7</ele>
        <time>2013-04-21T14:56:52Z</time>
      </trkpt>
      <trkpt lat="42.824783" lon="0.990173">
        <ele>1093.9</ele>
        <time>2013-04-21T14:56:59Z</time>
      </trkpt>
      <trkpt lat="42.824671" lon="0.990419">
        <ele>1103.1</ele>
        <time>2013-04-21T14:57:07Z</time>
      </trkpt>
      <trkpt lat="42.824791" lon="0.990594">
        <ele>1115.4</ele>
        <time>2013-04-21T14:57:16Z</time>
      </trkpt>
      <trkpt lat="42.825162" lon="0.990630">
        <ele>1098.9</ele>
        <time>2013-04-21T14:57:34Z</time>
      </trkpt>
      <trkpt lat="42.825194" lon="0.990740">
        <ele>1104.7</ele>
        <time>2013-04-21T14:57:42Z</time>
      </trkpt>
      <trkpt lat="42.825185" lon="0.990910">
        <ele>1112.9</ele>
        <time>2013-04-21T14:57:53Z</time>
      </trkpt>
      <trkpt lat="42.825181" lon="0.991044">
        <ele>1116.2</ele>
        <time>2013-04-21T14:57:59Z</time>
      </trkpt>
      <trkpt lat="42.825231" lon="0.991181">
        <ele>1121.5</ele>
        <time>2013-04-21T14:58:06Z</time>
      </trkpt>
      <trkpt lat="42.825261" lon="0.991335">
        <ele>1128.7</ele>
        <time>2013-04-21T14:58:15Z</time>
      </trkpt>
      <trkpt lat="42.825316" lon="0.991472">
        <ele>1136.4</ele>
        <time>2013-04-21T14:58:25Z</time>
      </trkpt>
      <trkpt lat="42.825255" lon="0.991563">
        <ele>1139.3</ele>
        <time>2013-04-21T14:58:35Z</time>
      </trkpt>
      <trkpt lat="42.825212" lon="0.991671">
        <ele>1141.2</ele>
        <time>2013-04-21T14:58:42Z</time>
      </trkpt>
      <trkpt lat="42.825340" lon="0.991698">
        <ele>1144.1</ele>
        <time>2013-04-21T14:58:54Z</time>
      </trkpt>
      <trkpt lat="42.825448" lon="0.991670">
        <ele>1147.0</ele>
        <time>2013-04-21T14:59:07Z</time>
      </trkpt>
      <trkpt lat="42.825440" lon="0.991793">
        <ele>1153.2</ele>
        <time>2013-04-21T14:59:21Z</time>
      </trkpt>
      <trkpt lat="42.825333" lon="0.991886">
        <ele>1156.6</ele>
        <time>2013-04-21T14:59:34Z</time>
      </trkpt>
      <trkpt lat="42.825258" lon="0.991990">
        <ele>1159.5</ele>
        <time>2013-04-21T14:59:45Z</time>
      </trkpt>
      <trkpt lat="42.825298" lon="0.992111">
        <ele>1164.8</ele>
        <time>2013-04-21T14:59:59Z</time>
      </trkpt>
      <trkpt lat="42.825448" lon="0.992124">
        <ele>1170.5</ele>
        <time>2013-04-21T15:00:13Z</time>
      </trkpt>
      <trkpt lat="42.825539" lon="0.992155">
        <ele>1177.3</ele>
        <time>2013-04-21T15:00:34Z</time>
      </trkpt>
      <trkpt lat="42.825697" lon="0.992296">
        <ele>1186.4</ele>
        <time>2013-04-21T15:00:54Z</time>
      </trkpt>
      <trkpt lat="42.825838" lon="0.992180">
        <ele>1191.2</ele>
        <time>2013-04-21T15:01:07Z</time>
      </trkpt>
      <trkpt lat="42.825952" lon="0.992058">
        <ele>1195.5</ele>
        <time>2013-04-21T15:01:19Z</time>
      </trkpt>
      <trkpt lat="42.826050" lon="0.992083">
        <ele>1199.4</ele>
        <time>2013-04-21T15:01:28Z</time>
      </trkpt>
      <trkpt lat="42.825976" lon="0.992308">
        <ele>1202.8</ele>
        <time>2013-04-21T15:01:40Z</time>
      </trkpt>
      <trkpt lat="42.825892" lon="0.992466">
        <ele>1209.5</ele>
        <time>2013-04-21T15:01:50Z</time>
      </trkpt>
      <trkpt lat="42.825810" lon="0.992619">
        <ele>1210.4</ele>
        <time>2013-04-21T15:02:02Z</time>
      </trkpt>
      <trkpt lat="42.825870" lon="0.992729">
        <ele>1217.7</ele>
        <time>2013-04-21T15:02:18Z</time>
      </trkpt>
      <trkpt lat="42.825921" lon="0.992780">
        <ele>1222.4</ele>
        <time>2013-04-21T15:02:32Z</time>
      </trkpt>
      <trkpt lat="42.825845" lon="0.992895">
        <ele>1224.9</ele>
        <time>2013-04-21T15:02:39Z</time>
      </trkpt>
      <trkpt lat="42.825926" lon="0.992865">
        <ele>1226.8</ele>
        <time>2013-04-21T15:02:47Z</time>
      </trkpt>
      <trkpt lat="42.825891" lon="0.992988">
        <ele>1229.7</ele>
        <time>2013-04-21T15:02:58Z</time>
      </trkpt>
      <trkpt lat="42.825884" lon="0.993126">
        <ele>1235.9</ele>
        <time>2013-04-21T15:03:10Z</time>
      </trkpt>
      <trkpt lat="42.825876" lon="0.993293">
        <ele>1241.7</ele>
        <time>2013-04-21T15:03:25Z</time>
      </trkpt>
      <trkpt lat="42.825912" lon="0.993322">
        <ele>1246.0</ele>
        <time>2013-04-21T15:03:36Z</time>
      </trkpt>
      <trkpt lat="42.825869" lon="0.993459">
        <ele>1249.8</ele>
        <time>2013-04-21T15:03:45Z</time>
      </trkpt>
      <trkpt lat="42.825870" lon="0.993615">
        <ele>1255.1</ele>
        <time>2013-04-21T15:03:57Z</time>
      </trkpt>
      <trkpt lat="42.825926" lon="0.993712">
        <ele>1259.5</ele>
        <time>2013-04-21T15:04:49Z</time>
      </trkpt>
      <trkpt lat="42.825984" lon="0.993740">
        <ele>1265.2</ele>
        <time>2013-04-21T15:05:08Z</time>
      </trkpt>
      <trkpt lat="42.825976" lon="0.993876">
        <ele>1269.1</ele>
        <time>2013-04-21T15:05:21Z</time>
      </trkpt>
      <trkpt lat="42.826012" lon="0.994027">
        <ele>1271.0</ele>
        <time>2013-04-21T15:05:28Z</time>
      </trkpt>
      <trkpt lat="42.826040" lon="0.994098">
        <ele>1275.3</ele>
        <time>2013-04-21T15:05:39Z</time>
      </trkpt>
      <trkpt lat="42.826098" lon="0.993925">
        <ele>1277.7</ele>
        <time>2013-04-21T15:05:48Z</time>
      </trkpt>
      <trkpt lat="42.826188" lon="0.993833">
        <ele>1281.1</ele>
        <time>2013-04-21T15:05:57Z</time>
      </trkpt>
      <trkpt lat="42.826230" lon="0.993877">
        <ele>1284.0</ele>
        <time>2013-04-21T15:06:06Z</time>
      </trkpt>
      <trkpt lat="42.826205" lon="0.994033">
        <ele>1286.9</ele>
        <time>2013-04-21T15:06:14Z</time>
      </trkpt>
      <trkpt lat="42.826212" lon="0.994183">
        <ele>1288.8</ele>
        <time>2013-04-21T15:06:21Z</time>
      </trkpt>
      <trkpt lat="42.826202" lon="0.994360">
        <ele>1291.2</ele>
        <time>2013-04-21T15:06:30Z</time>
      </trkpt>
      <trkpt lat="42.826228" lon="0.994524">
        <ele>1295.0</ele>
        <time>2013-04-21T15:06:39Z</time>
      </trkpt>
      <trkpt lat="42.826299" lon="0.994339">
        <ele>1297.9</ele>
        <time>2013-04-21T15:06:48Z</time>
      </trkpt>
      <trkpt lat="42.826360" lon="0.994165">
        <ele>1301.8</ele>
        <time>2013-04-21T15:06:59Z</time>
      </trkpt>
      <trkpt lat="42.826407" lon="0.994103">
        <ele>1305.1</ele>
        <time>2013-04-21T15:07:10Z</time>
      </trkpt>
      <trkpt lat="42.826417" lon="0.994240">
        <ele>1308.5</ele>
        <time>2013-04-21T15:07:18Z</time>
      </trkpt>
      <trkpt lat="42.826439" lon="0.994360">
        <ele>1311.4</ele>
        <time>2013-04-21T15:07:26Z</time>
      </trkpt>
      <trkpt lat="42.826540" lon="0.994224">
        <ele>1314.7</ele>
        <time>2013-04-21T15:07:36Z</time>
      </trkpt>
      <trkpt lat="42.826621" lon="0.994070">
        <ele>1318.1</ele>
        <time>2013-04-21T15:07:47Z</time>
      </trkpt>
      <trkpt lat="42.826614" lon="0.994157">
        <ele>1320.5</ele>
        <time>2013-04-21T15:07:57Z</time>
      </trkpt>
      <trkpt lat="42.826591" lon="0.994342">
        <ele>1321.9</ele>
        <time>2013-04-21T15:08:06Z</time>
      </trkpt>
      <trkpt lat="42.826566" lon="0.994489">
        <ele>1322.9</ele>
        <time>2013-04-21T15:08:14Z</time>
      </trkpt>
      <trkpt lat="42.826632" lon="0.994482">
        <ele>1325.3</ele>
        <time>2013-04-21T15:08:23Z</time>
      </trkpt>
      <trkpt lat="42.826722" lon="0.994336">
        <ele>1328.2</ele>
        <time>2013-04-21T15:08:31Z</time>
      </trkpt>
      <trkpt lat="42.826796" lon="0.994164">
        <ele>1332.0</ele>
        <time>2013-04-21T15:08:41Z</time>
      </trkpt>
      <trkpt lat="42.826860" lon="0.993988">
        <ele>1332.0</ele>
        <time>2013-04-21T15:08:53Z</time>
      </trkpt>
      <trkpt lat="42.826943" lon="0.993846">
        <ele>1335.9</ele>
        <time>2013-04-21T15:09:03Z</time>
      </trkpt>
      <trkpt lat="42.827031" lon="0.993705">
        <ele>1339.2</ele>
        <time>2013-04-21T15:09:12Z</time>
      </trkpt>
      <trkpt lat="42.827143" lon="0.993622">
        <ele>1342.6</ele>
        <time>2013-04-21T15:09:21Z</time>
      </trkpt>
      <trkpt lat="42.827284" lon="0.993614">
        <ele>1347.4</ele>
        <time>2013-04-21T15:09:32Z</time>
      </trkpt>
      <trkpt lat="42.827417" lon="0.993591">
        <ele>1353.2</ele>
        <time>2013-04-21T15:09:43Z</time>
      </trkpt>
      <trkpt lat="42.827465" lon="0.993653">
        <ele>1360.4</ele>
        <time>2013-04-21T15:09:57Z</time>
      </trkpt>
      <trkpt lat="42.827533" lon="0.993698">
        <ele>1365.2</ele>
        <time>2013-04-21T15:10:08Z</time>
      </trkpt>
      <trkpt lat="42.827534" lon="0.993798">
        <ele>1369.5</ele>
        <time>2013-04-21T15:10:20Z</time>
      </trkpt>
      <trkpt lat="42.827444" lon="0.993938">
        <ele>1373.4</ele>
        <time>2013-04-21T15:10:30Z</time>
      </trkpt>
      <trkpt lat="42.827420" lon="0.994066">
        <ele>1378.7</ele>
        <time>2013-04-21T15:10:41Z</time>
      </trkpt>
      <trkpt lat="42.827529" lon="0.994041">
        <ele>1382.0</ele>
        <time>2013-04-21T15:10:49Z</time>
      </trkpt>
      <trkpt lat="42.827544" lon="0.994144">
        <ele>1386.8</ele>
        <time>2013-04-21T15:11:02Z</time>
      </trkpt>
      <trkpt lat="42.827610" lon="0.994164">
        <ele>1391.2</ele>
        <time>2013-04-21T15:11:13Z</time>
      </trkpt>
      <trkpt lat="42.827631" lon="0.994247">
        <ele>1395.0</ele>
        <time>2013-04-21T15:11:24Z</time>
      </trkpt>
      <trkpt lat="42.827751" lon="0.994178">
        <ele>1398.4</ele>
        <time>2013-04-21T15:11:35Z</time>
      </trkpt>
      <trkpt lat="42.827906" lon="0.994119">
        <ele>1402.7</ele>
        <time>2013-04-21T15:11:47Z</time>
      </trkpt>
      <trkpt lat="42.828011" lon="0.994010">
        <ele>1403.2</ele>
        <time>2013-04-21T15:12:10Z</time>
      </trkpt>
      <trkpt lat="42.828071" lon="0.993981">
        <ele>1406.1</ele>
        <time>2013-04-21T15:12:19Z</time>
      </trkpt>
      <trkpt lat="42.828072" lon="0.994078">
        <ele>1410.4</ele>
        <time>2013-04-21T15:12:28Z</time>
      </trkpt>
      <trkpt lat="42.828171" lon="0.994116">
        <ele>1413.8</ele>
        <time>2013-04-21T15:12:37Z</time>
      </trkpt>
      <trkpt lat="42.828247" lon="0.994195">
        <ele>1417.6</ele>
        <time>2013-04-21T15:12:46Z</time>
      </trkpt>
      <trkpt lat="42.828172" lon="0.994304">
        <ele>1422.4</ele>
        <time>2013-04-21T15:12:55Z</time>
      </trkpt>
      <trkpt lat="42.828281" lon="0.994348">
        <ele>1425.8</ele>
        <time>2013-04-21T15:13:03Z</time>
      </trkpt>
      <trkpt lat="42.828381" lon="0.994407">
        <ele>1429.6</ele>
        <time>2013-04-21T15:13:12Z</time>
      </trkpt>
      <trkpt lat="42.828475" lon="0.994471">
        <ele>1433.0</ele>
        <time>2013-04-21T15:13:21Z</time>
      </trkpt>
      <trkpt lat="42.828396" lon="0.994486">
        <ele>1433.9</ele>
        <time>2013-04-21T15:13:31Z</time>
      </trkpt>
      <trkpt lat="42.828306" lon="0.994548">
        <ele>1436.8</ele>
        <time>2013-04-21T15:13:40Z</time>
      </trkpt>
      <trkpt lat="42.828382" lon="0.994609">
        <ele>1439.7</ele>
        <time>2013-04-21T15:13:48Z</time>
      </trkpt>
      <trkpt lat="42.828470" lon="0.994672">
        <ele>1442.6</ele>
        <time>2013-04-21T15:13:57Z</time>
      </trkpt>
      <trkpt lat="42.828554" lon="0.994732">
        <ele>1446.9</ele>
        <time>2013-04-21T15:14:04Z</time>
      </trkpt>
      <trkpt lat="42.828650" lon="0.994777">
        <ele>1450.8</ele>
        <time>2013-04-21T15:14:12Z</time>
      </trkpt>
      <trkpt lat="42.828740" lon="0.994820">
        <ele>1454.6</ele>
        <time>2013-04-21T15:14:20Z</time>
      </trkpt>
      <trkpt lat="42.828831" lon="0.994844">
        <ele>1457.0</ele>
        <time>2013-04-21T15:14:29Z</time>
      </trkpt>
      <trkpt lat="42.828925" lon="0.994811">
        <ele>1458.5</ele>
        <time>2013-04-21T15:14:36Z</time>
      </trkpt>
      <trkpt lat="42.829009" lon="0.994791">
        <ele>1460.4</ele>
        <time>2013-04-21T15:14:43Z</time>
      </trkpt>
      <trkpt lat="42.829095" lon="0.994743">
        <ele>1460.4</ele>
        <time>2013-04-21T15:14:50Z</time>
      </trkpt>
      <trkpt lat="42.829191" lon="0.994701">
        <ele>1460.9</ele>
        <time>2013-04-21T15:14:57Z</time>
      </trkpt>
      <trkpt lat="42.829293" lon="0.994654">
        <ele>1462.3</ele>
        <time>2013-04-21T15:15:05Z</time>
      </trkpt>
      <trkpt lat="42.829380" lon="0.994639">
        <ele>1463.7</ele>
        <time>2013-04-21T15:15:13Z</time>
      </trkpt>
      <trkpt lat="42.829479" lon="0.994622">
        <ele>1466.6</ele>
        <time>2013-04-21T15:15:20Z</time>
      </trkpt>
      <trkpt lat="42.829586" lon="0.994597">
        <ele>1469.0</ele>
        <time>2013-04-21T15:15:27Z</time>
      </trkpt>
      <trkpt lat="42.829685" lon="0.994600">
        <ele>1470.9</ele>
        <time>2013-04-21T15:15:34Z</time>
      </trkpt>
      <trkpt lat="42.829776" lon="0.994614">
        <ele>1472.4</ele>
        <time>2013-04-21T15:15:42Z</time>
      </trkpt>
      <trkpt lat="42.829847" lon="0.994645">
        <ele>1473.8</ele>
        <time>2013-04-21T15:15:50Z</time>
      </trkpt>
      <trkpt lat="42.829941" lon="0.994700">
        <ele>1476.7</ele>
        <time>2013-04-21T15:15:58Z</time>
      </trkpt>
      <trkpt lat="42.830041" lon="0.994733">
        <ele>1477.2</ele>
        <time>2013-04-21T15:16:06Z</time>
      </trkpt>
      <trkpt lat="42.830139" lon="0.994780">
        <ele>1480.1</ele>
        <time>2013-04-21T15:16:14Z</time>
      </trkpt>
      <trkpt lat="42.830235" lon="0.994812">
        <ele>1481.1</ele>
        <time>2013-04-21T15:16:22Z</time>
      </trkpt>
      <trkpt lat="42.830315" lon="0.994880">
        <ele>1482.5</ele>
        <time>2013-04-21T15:16:29Z</time>
      </trkpt>
      <trkpt lat="42.830395" lon="0.994972">
        <ele>1485.4</ele>
        <time>2013-04-21T15:16:37Z</time>
      </trkpt>
      <trkpt lat="42.830476" lon="0.995054">
        <ele>1486.8</ele>
        <time>2013-04-21T15:16:46Z</time>
      </trkpt>
      <trkpt lat="42.830560" lon="0.995140">
        <ele>1489.2</ele>
        <time>2013-04-21T15:16:56Z</time>
      </trkpt>
      <trkpt lat="42.830633" lon="0.995218">
        <ele>1492.1</ele>
        <time>2013-04-21T15:17:04Z</time>
      </trkpt>
      <trkpt lat="42.830614" lon="0.995320">
        <ele>1497.4</ele>
        <time>2013-04-21T15:17:14Z</time>
      </trkpt>
      <trkpt lat="42.830526" lon="0.995362">
        <ele>1499.8</ele>
        <time>2013-04-21T15:17:23Z</time>
      </trkpt>
      <trkpt lat="42.830431" lon="0.995404">
        <ele>1503.2</ele>
        <time>2013-04-21T15:17:32Z</time>
      </trkpt>
      <trkpt lat="42.830327" lon="0.995410">
        <ele>1506.5</ele>
        <time>2013-04-21T15:17:42Z</time>
      </trkpt>
      <trkpt lat="42.830242" lon="0.995438">
        <ele>1510.4</ele>
        <time>2013-04-21T15:17:52Z</time>
      </trkpt>
      <trkpt lat="42.830153" lon="0.995484">
        <ele>1513.2</ele>
        <time>2013-04-21T15:18:03Z</time>
      </trkpt>
      <trkpt lat="42.830069" lon="0.995548">
        <ele>1516.1</ele>
        <time>2013-04-21T15:18:14Z</time>
      </trkpt>
      <trkpt lat="42.829980" lon="0.995607">
        <ele>1519.5</ele>
        <time>2013-04-21T15:18:24Z</time>
      </trkpt>
      <trkpt lat="42.829920" lon="0.995698">
        <ele>1522.4</ele>
        <time>2013-04-21T15:18:34Z</time>
      </trkpt>
      <trkpt lat="42.829843" lon="0.995769">
        <ele>1523.8</ele>
        <time>2013-04-21T15:18:44Z</time>
      </trkpt>
      <trkpt lat="42.829803" lon="0.995864">
        <ele>1526.2</ele>
        <time>2013-04-21T15:18:53Z</time>
      </trkpt>
      <trkpt lat="42.829726" lon="0.995921">
        <ele>1526.7</ele>
        <time>2013-04-21T15:19:15Z</time>
      </trkpt>
      <trkpt lat="42.829720" lon="0.995983">
        <ele>1529.1</ele>
        <time>2013-04-21T15:20:17Z</time>
        <name>Cab. de Besset</name>
      </trkpt>
      <trkpt lat="42.829712" lon="0.996024">
        <ele>1529.1</ele>
        <time>2013-04-21T15:29:45Z</time>
      </trkpt>
      <trkpt lat="42.829726" lon="0.996138">
        <ele>1532.5</ele>
        <time>2013-04-21T15:29:54Z</time>
      </trkpt>
      <trkpt lat="42.829759" lon="0.996243">
        <ele>1535.8</ele>
        <time>2013-04-21T15:30:04Z</time>
      </trkpt>
      <trkpt lat="42.829747" lon="0.996372">
        <ele>1540.2</ele>
        <time>2013-04-21T15:30:12Z</time>
      </trkpt>
      <trkpt lat="42.829707" lon="0.996506">
        <ele>1544.5</ele>
        <time>2013-04-21T15:30:21Z</time>
      </trkpt>
      <trkpt lat="42.829669" lon="0.996618">
        <ele>1547.9</ele>
        <time>2013-04-21T15:30:29Z</time>
      </trkpt>
      <trkpt lat="42.829614" lon="0.996741">
        <ele>1551.7</ele>
        <time>2013-04-21T15:30:37Z</time>
      </trkpt>
      <trkpt lat="42.829574" lon="0.996856">
        <ele>1555.6</ele>
        <time>2013-04-21T15:30:45Z</time>
      </trkpt>
      <trkpt lat="42.829559" lon="0.996988">
        <ele>1559.9</ele>
        <time>2013-04-21T15:30:53Z</time>
      </trkpt>
      <trkpt lat="42.829494" lon="0.997084">
        <ele>1564.2</ele>
        <time>2013-04-21T15:31:01Z</time>
      </trkpt>
      <trkpt lat="42.829431" lon="0.997183">
        <ele>1567.6</ele>
        <time>2013-04-21T15:31:08Z</time>
      </trkpt>
      <trkpt lat="42.829383" lon="0.997295">
        <ele>1570.9</ele>
        <time>2013-04-21T15:31:15Z</time>
      </trkpt>
      <trkpt lat="42.829324" lon="0.997399">
        <ele>1574.8</ele>
        <time>2013-04-21T15:31:22Z</time>
      </trkpt>
      <trkpt lat="42.829265" lon="0.997513">
        <ele>1578.6</ele>
        <time>2013-04-21T15:31:30Z</time>
      </trkpt>
      <trkpt lat="42.829209" lon="0.997612">
        <ele>1582.5</ele>
        <time>2013-04-21T15:31:37Z</time>
      </trkpt>
      <trkpt lat="42.829160" lon="0.997731">
        <ele>1586.8</ele>
        <time>2013-04-21T15:31:45Z</time>
      </trkpt>
      <trkpt lat="42.829090" lon="0.997819">
        <ele>1589.2</ele>
        <time>2013-04-21T15:31:53Z</time>
      </trkpt>
      <trkpt lat="42.829022" lon="0.997894">
        <ele>1591.1</ele>
        <time>2013-04-21T15:32:00Z</time>
      </trkpt>
      <trkpt lat="42.828963" lon="0.998004">
        <ele>1593.5</ele>
        <time>2013-04-21T15:32:07Z</time>
      </trkpt>
      <trkpt lat="42.828895" lon="0.998097">
        <ele>1596.4</ele>
        <time>2013-04-21T15:32:14Z</time>
      </trkpt>
      <trkpt lat="42.828873" lon="0.998206">
        <ele>1600.7</ele>
        <time>2013-04-21T15:32:23Z</time>
      </trkpt>
      <trkpt lat="42.828831" lon="0.998331">
        <ele>1605.5</ele>
        <time>2013-04-21T15:32:32Z</time>
      </trkpt>
      <trkpt lat="42.828783" lon="0.998442">
        <ele>1608.9</ele>
        <time>2013-04-21T15:32:39Z</time>
      </trkpt>
      <trkpt lat="42.828723" lon="0.998527">
        <ele>1613.2</ele>
        <time>2013-04-21T15:32:46Z</time>
      </trkpt>
      <trkpt lat="42.828675" lon="0.998639">
        <ele>1616.6</ele>
        <time>2013-04-21T15:32:54Z</time>
      </trkpt>
      <trkpt lat="42.828620" lon="0.998753">
        <ele>1620.9</ele>
        <time>2013-04-21T15:33:02Z</time>
      </trkpt>
      <trkpt lat="42.828696" lon="0.998801">
        <ele>1625.2</ele>
        <time>2013-04-21T15:33:10Z</time>
      </trkpt>
      <trkpt lat="42.828769" lon="0.998859">
        <ele>1629.1</ele>
        <time>2013-04-21T15:33:19Z</time>
      </trkpt>
      <trkpt lat="42.828853" lon="0.998908">
        <ele>1632.9</ele>
        <time>2013-04-21T15:33:27Z</time>
      </trkpt>
      <trkpt lat="42.828925" lon="0.998982">
        <ele>1636.8</ele>
        <time>2013-04-21T15:33:37Z</time>
      </trkpt>
      <trkpt lat="42.829005" lon="0.999025">
        <ele>1641.1</ele>
        <time>2013-04-21T15:33:47Z</time>
      </trkpt>
      <trkpt lat="42.829094" lon="0.999033">
        <ele>1643.5</ele>
        <time>2013-04-21T15:33:56Z</time>
      </trkpt>
      <trkpt lat="42.829181" lon="0.999060">
        <ele>1647.8</ele>
        <time>2013-04-21T15:34:07Z</time>
      </trkpt>
      <trkpt lat="42.829233" lon="0.999139">
        <ele>1650.7</ele>
        <time>2013-04-21T15:34:18Z</time>
      </trkpt>
      <trkpt lat="42.829202" lon="0.999260">
        <ele>1654.1</ele>
        <time>2013-04-21T15:34:28Z</time>
      </trkpt>
      <trkpt lat="42.829224" lon="0.999348">
        <ele>1657.4</ele>
        <time>2013-04-21T15:34:40Z</time>
      </trkpt>
      <trkpt lat="42.829320" lon="0.999366">
        <ele>1661.3</ele>
        <time>2013-04-21T15:34:49Z</time>
      </trkpt>
      <trkpt lat="42.829408" lon="0.999394">
        <ele>1665.1</ele>
        <time>2013-04-21T15:34:58Z</time>
      </trkpt>
      <trkpt lat="42.829482" lon="0.999474">
        <ele>1668.5</ele>
        <time>2013-04-21T15:35:08Z</time>
      </trkpt>
      <trkpt lat="42.829533" lon="0.999583">
        <ele>1670.9</ele>
        <time>2013-04-21T15:35:17Z</time>
      </trkpt>
      <trkpt lat="42.829588" lon="0.999697">
        <ele>1674.3</ele>
        <time>2013-04-21T15:35:28Z</time>
      </trkpt>
      <trkpt lat="42.829650" lon="0.999798">
        <ele>1678.6</ele>
        <time>2013-04-21T15:35:39Z</time>
      </trkpt>
      <trkpt lat="42.829676" lon="0.999895">
        <ele>1681.0</ele>
        <time>2013-04-21T15:35:49Z</time>
      </trkpt>
      <trkpt lat="42.829604" lon="0.999982">
        <ele>1684.4</ele>
        <time>2013-04-21T15:35:57Z</time>
      </trkpt>
      <trkpt lat="42.829531" lon="1.000063">
        <ele>1687.2</ele>
        <time>2013-04-21T15:36:05Z</time>
      </trkpt>
      <trkpt lat="42.829561" lon="1.000168">
        <ele>1690.1</ele>
        <time>2013-04-21T15:36:15Z</time>
      </trkpt>
      <trkpt lat="42.829645" lon="1.000237">
        <ele>1694.0</ele>
        <time>2013-04-21T15:36:23Z</time>
      </trkpt>
      <trkpt lat="42.829742" lon="1.000309">
        <ele>1696.9</ele>
        <time>2013-04-21T15:36:31Z</time>
      </trkpt>
      <trkpt lat="42.829821" lon="1.000373">
        <ele>1699.8</ele>
        <time>2013-04-21T15:36:39Z</time>
      </trkpt>
      <trkpt lat="42.829803" lon="1.000449">
        <ele>1702.6</ele>
        <time>2013-04-21T15:36:48Z</time>
      </trkpt>
      <trkpt lat="42.829724" lon="1.000525">
        <ele>1706.0</ele>
        <time>2013-04-21T15:37:00Z</time>
      </trkpt>
      <trkpt lat="42.829659" lon="1.000610">
        <ele>1708.9</ele>
        <time>2013-04-21T15:37:12Z</time>
      </trkpt>
      <trkpt lat="42.829625" lon="1.000678">
        <ele>1711.8</ele>
        <time>2013-04-21T15:39:31Z</time>
      </trkpt>
      <trkpt lat="42.829556" lon="1.000787">
        <ele>1715.6</ele>
        <time>2013-04-21T15:39:42Z</time>
      </trkpt>
      <trkpt lat="42.829512" lon="1.000907">
        <ele>1719.5</ele>
        <time>2013-04-21T15:39:53Z</time>
      </trkpt>
      <trkpt lat="42.829474" lon="1.001024">
        <ele>1723.8</ele>
        <time>2013-04-21T15:40:04Z</time>
      </trkpt>
      <trkpt lat="42.829445" lon="1.001146">
        <ele>1727.6</ele>
        <time>2013-04-21T15:40:16Z</time>
      </trkpt>
      <trkpt lat="42.829419" lon="1.001266">
        <ele>1732.4</ele>
        <time>2013-04-21T15:40:29Z</time>
      </trkpt>
      <trkpt lat="42.829435" lon="1.001392">
        <ele>1739.2</ele>
        <time>2013-04-21T15:40:44Z</time>
      </trkpt>
      <trkpt lat="42.829484" lon="1.001493">
        <ele>1744.9</ele>
        <time>2013-04-21T15:40:59Z</time>
      </trkpt>
      <trkpt lat="42.829576" lon="1.001539">
        <ele>1749.3</ele>
        <time>2013-04-21T15:41:11Z</time>
      </trkpt>
      <trkpt lat="42.829664" lon="1.001586">
        <ele>1753.1</ele>
        <time>2013-04-21T15:41:23Z</time>
      </trkpt>
      <trkpt lat="42.829752" lon="1.001600">
        <ele>1756.0</ele>
        <time>2013-04-21T15:41:34Z</time>
      </trkpt>
      <trkpt lat="42.829808" lon="1.001647">
        <ele>1758.9</ele>
        <time>2013-04-21T15:41:47Z</time>
      </trkpt>
      <trkpt lat="42.829792" lon="1.001749">
        <ele>1763.7</ele>
        <time>2013-04-21T15:42:12Z</time>
      </trkpt>
      <trkpt lat="42.829721" lon="1.001824">
        <ele>1767.5</ele>
        <time>2013-04-21T15:42:25Z</time>
      </trkpt>
      <trkpt lat="42.829660" lon="1.001919">
        <ele>1770.4</ele>
        <time>2013-04-21T15:42:34Z</time>
      </trkpt>
      <trkpt lat="42.829597" lon="1.002021">
        <ele>1772.8</ele>
        <time>2013-04-21T15:42:42Z</time>
      </trkpt>
      <trkpt lat="42.829535" lon="1.002118">
        <ele>1775.7</ele>
        <time>2013-04-21T15:42:51Z</time>
      </trkpt>
      <trkpt lat="42.829464" lon="1.002224">
        <ele>1777.6</ele>
        <time>2013-04-21T15:43:02Z</time>
      </trkpt>
      <trkpt lat="42.829403" lon="1.002320">
        <ele>1780.0</ele>
        <time>2013-04-21T15:43:11Z</time>
      </trkpt>
      <trkpt lat="42.829353" lon="1.002427">
        <ele>1783.4</ele>
        <time>2013-04-21T15:43:21Z</time>
      </trkpt>
      <trkpt lat="42.829282" lon="1.002528">
        <ele>1786.3</ele>
        <time>2013-04-21T15:43:31Z</time>
      </trkpt>
      <trkpt lat="42.829213" lon="1.002622">
        <ele>1789.2</ele>
        <time>2013-04-21T15:43:44Z</time>
      </trkpt>
      <trkpt lat="42.829149" lon="1.002716">
        <ele>1793.0</ele>
        <time>2013-04-21T15:43:53Z</time>
      </trkpt>
      <trkpt lat="42.829085" lon="1.002813">
        <ele>1795.4</ele>
        <time>2013-04-21T15:44:05Z</time>
      </trkpt>
      <trkpt lat="42.829031" lon="1.002921">
        <ele>1799.2</ele>
        <time>2013-04-21T15:44:21Z</time>
      </trkpt>
      <trkpt lat="42.829028" lon="1.003023">
        <ele>1802.1</ele>
        <time>2013-04-21T15:44:54Z</time>
      </trkpt>
      <trkpt lat="42.829031" lon="1.003133">
        <ele>1806.4</ele>
        <time>2013-04-21T15:45:09Z</time>
      </trkpt>
      <trkpt lat="42.828986" lon="1.003240">
        <ele>1807.4</ele>
        <time>2013-04-21T15:45:23Z</time>
      </trkpt>
      <trkpt lat="42.828949" lon="1.003355">
        <ele>1808.9</ele>
        <time>2013-04-21T15:45:40Z</time>
      </trkpt>
      <trkpt lat="42.828905" lon="1.003464">
        <ele>1810.3</ele>
        <time>2013-04-21T15:45:58Z</time>
      </trkpt>
      <trkpt lat="42.828856" lon="1.003571">
        <ele>1811.7</ele>
        <time>2013-04-21T15:46:11Z</time>
      </trkpt>
      <trkpt lat="42.828795" lon="1.003667">
        <ele>1813.2</ele>
        <time>2013-04-21T15:46:23Z</time>
      </trkpt>
      <trkpt lat="42.828769" lon="1.003802">
        <ele>1817.0</ele>
        <time>2013-04-21T15:46:39Z</time>
      </trkpt>
      <trkpt lat="42.828735" lon="1.003900">
        <ele>1823.3</ele>
        <time>2013-04-21T15:46:48Z</time>
      </trkpt>
      <trkpt lat="42.828752" lon="1.004012">
        <ele>1821.8</ele>
        <time>2013-04-21T15:46:59Z</time>
      </trkpt>
      <trkpt lat="42.828709" lon="1.004088">
        <ele>1824.2</ele>
        <time>2013-04-21T15:47:12Z</time>
      </trkpt>
      <trkpt lat="42.828669" lon="1.004122">
        <ele>1826.6</ele>
        <time>2013-04-21T15:48:21Z</time>
        <name>Cab. du Clot du Lac</name>
      </trkpt>
      <trkpt lat="42.828677" lon="1.004200">
        <ele>1826.6</ele>
        <time>2013-04-21T15:53:41Z</time>
      </trkpt>
      <trkpt lat="42.828608" lon="1.004278">
        <ele>1830.0</ele>
        <time>2013-04-21T15:53:50Z</time>
      </trkpt>
      <trkpt lat="42.828511" lon="1.004274">
        <ele>1831.4</ele>
        <time>2013-04-21T15:54:00Z</time>
      </trkpt>
      <trkpt lat="42.828425" lon="1.004305">
        <ele>1832.4</ele>
        <time>2013-04-21T15:54:08Z</time>
      </trkpt>
      <trkpt lat="42.828366" lon="1.004372">
        <ele>1832.9</ele>
        <time>2013-04-21T15:54:16Z</time>
      </trkpt>
      <trkpt lat="42.828277" lon="1.004425">
        <ele>1835.8</ele>
        <time>2013-04-21T15:54:24Z</time>
      </trkpt>
      <trkpt lat="42.828179" lon="1.004466">
        <ele>1837.7</ele>
        <time>2013-04-21T15:54:32Z</time>
      </trkpt>
      <trkpt lat="42.828107" lon="1.004476">
        <ele>1841.1</ele>
        <time>2013-04-21T15:54:42Z</time>
      </trkpt>
      <trkpt lat="42.828021" lon="1.004450">
        <ele>1843.5</ele>
        <time>2013-04-21T15:54:53Z</time>
      </trkpt>
      <trkpt lat="42.827940" lon="1.004470">
        <ele>1843.0</ele>
        <time>2013-04-21T15:55:01Z</time>
      </trkpt>
      <trkpt lat="42.827855" lon="1.004455">
        <ele>1843.9</ele>
        <time>2013-04-21T15:55:09Z</time>
      </trkpt>
      <trkpt lat="42.827757" lon="1.004422">
        <ele>1847.3</ele>
        <time>2013-04-21T15:55:20Z</time>
      </trkpt>
      <trkpt lat="42.827698" lon="1.004399">
        <ele>1849.2</ele>
        <time>2013-04-21T15:55:33Z</time>
      </trkpt>
      <trkpt lat="42.827613" lon="1.004435">
        <ele>1849.2</ele>
        <time>2013-04-21T15:55:41Z</time>
      </trkpt>
      <trkpt lat="42.827523" lon="1.004483">
        <ele>1849.7</ele>
        <time>2013-04-21T15:55:50Z</time>
      </trkpt>
      <trkpt lat="42.827428" lon="1.004478">
        <ele>1850.2</ele>
        <time>2013-04-21T15:55:59Z</time>
      </trkpt>
      <trkpt lat="42.827337" lon="1.004427">
        <ele>1852.6</ele>
        <time>2013-04-21T15:56:09Z</time>
      </trkpt>
      <trkpt lat="42.827254" lon="1.004404">
        <ele>1854.5</ele>
        <time>2013-04-21T15:56:22Z</time>
      </trkpt>
      <trkpt lat="42.827166" lon="1.004347">
        <ele>1855.5</ele>
        <time>2013-04-21T15:56:31Z</time>
      </trkpt>
      <trkpt lat="42.827075" lon="1.004299">
        <ele>1856.0</ele>
        <time>2013-04-21T15:56:41Z</time>
      </trkpt>
      <trkpt lat="42.826983" lon="1.004310">
        <ele>1857.4</ele>
        <time>2013-04-21T15:56:50Z</time>
      </trkpt>
      <trkpt lat="42.826885" lon="1.004289">
        <ele>1858.4</ele>
        <time>2013-04-21T15:57:00Z</time>
      </trkpt>
      <trkpt lat="42.826792" lon="1.004272">
        <ele>1860.8</ele>
        <time>2013-04-21T15:57:13Z</time>
      </trkpt>
      <trkpt lat="42.826690" lon="1.004277">
        <ele>1864.1</ele>
        <time>2013-04-21T15:57:32Z</time>
      </trkpt>
      <trkpt lat="42.826605" lon="1.004266">
        <ele>1866.1</ele>
        <time>2013-04-21T15:57:55Z</time>
      </trkpt>
      <trkpt lat="42.826511" lon="1.004305">
        <ele>1864.1</ele>
        <time>2013-04-21T15:58:07Z</time>
      </trkpt>
      <trkpt lat="42.826446" lon="1.004411">
        <ele>1865.1</ele>
        <time>2013-04-21T15:58:19Z</time>
      </trkpt>
      <trkpt lat="42.826377" lon="1.004504">
        <ele>1866.5</ele>
        <time>2013-04-21T15:58:29Z</time>
      </trkpt>
      <trkpt lat="42.826301" lon="1.004588">
        <ele>1864.6</ele>
        <time>2013-04-21T15:58:38Z</time>
      </trkpt>
      <trkpt lat="42.826230" lon="1.004674">
        <ele>1864.6</ele>
        <time>2013-04-21T15:58:47Z</time>
      </trkpt>
      <trkpt lat="42.826161" lon="1.004771">
        <ele>1864.1</ele>
        <time>2013-04-21T15:58:57Z</time>
      </trkpt>
      <trkpt lat="42.826103" lon="1.004864">
        <ele>1863.7</ele>
        <time>2013-04-21T15:59:07Z</time>
      </trkpt>
      <trkpt lat="42.826044" lon="1.004960">
        <ele>1863.2</ele>
        <time>2013-04-21T15:59:15Z</time>
      </trkpt>
      <trkpt lat="42.825968" lon="1.005048">
        <ele>1862.2</ele>
        <time>2013-04-21T15:59:24Z</time>
      </trkpt>
      <trkpt lat="42.825890" lon="1.005128">
        <ele>1861.7</ele>
        <time>2013-04-21T15:59:33Z</time>
      </trkpt>
      <trkpt lat="42.825805" lon="1.005204">
        <ele>1862.2</ele>
        <time>2013-04-21T15:59:42Z</time>
      </trkpt>
      <trkpt lat="42.825725" lon="1.005269">
        <ele>1864.1</ele>
        <time>2013-04-21T15:59:50Z</time>
      </trkpt>
      <trkpt lat="42.825642" lon="1.005333">
        <ele>1865.1</ele>
        <time>2013-04-21T15:59:59Z</time>
      </trkpt>
      <trkpt lat="42.825563" lon="1.005400">
        <ele>1866.1</ele>
        <time>2013-04-21T16:00:11Z</time>
      </trkpt>
      <trkpt lat="42.825470" lon="1.005479">
        <ele>1866.1</ele>
        <time>2013-04-21T16:00:21Z</time>
      </trkpt>
      <trkpt lat="42.825434" lon="1.005582">
        <ele>1867.5</ele>
        <time>2013-04-21T16:00:31Z</time>
      </trkpt>
      <trkpt lat="42.825417" lon="1.005715">
        <ele>1869.4</ele>
        <time>2013-04-21T16:00:40Z</time>
      </trkpt>
      <trkpt lat="42.825389" lon="1.005822">
        <ele>1868.9</ele>
        <time>2013-04-21T16:00:52Z</time>
      </trkpt>
      <trkpt lat="42.825335" lon="1.005919">
        <ele>1869.9</ele>
        <time>2013-04-21T16:01:04Z</time>
      </trkpt>
      <trkpt lat="42.825289" lon="1.005996">
        <ele>1870.9</ele>
        <time>2013-04-21T16:01:30Z</time>
      </trkpt>
      <trkpt lat="42.825217" lon="1.006047">
        <ele>1870.9</ele>
        <time>2013-04-21T16:01:43Z</time>
      </trkpt>
      <trkpt lat="42.825161" lon="1.006139">
        <ele>1870.4</ele>
        <time>2013-04-21T16:01:53Z</time>
      </trkpt>
      <trkpt lat="42.825092" lon="1.006220">
        <ele>1868.0</ele>
        <time>2013-04-21T16:02:05Z</time>
      </trkpt>
      <trkpt lat="42.825003" lon="1.006269">
        <ele>1866.5</ele>
        <time>2013-04-21T16:02:17Z</time>
      </trkpt>
      <trkpt lat="42.824929" lon="1.006354">
        <ele>1865.6</ele>
        <time>2013-04-21T16:02:28Z</time>
      </trkpt>
      <trkpt lat="42.824855" lon="1.006422">
        <ele>1865.1</ele>
        <time>2013-04-21T16:02:40Z</time>
      </trkpt>
      <trkpt lat="42.824779" lon="1.006483">
        <ele>1864.1</ele>
        <time>2013-04-21T16:02:52Z</time>
      </trkpt>
      <trkpt lat="42.824713" lon="1.006558">
        <ele>1865.6</ele>
        <time>2013-04-21T16:03:01Z</time>
      </trkpt>
      <trkpt lat="42.824622" lon="1.006593">
        <ele>1868.5</ele>
        <time>2013-04-21T16:03:10Z</time>
      </trkpt>
      <trkpt lat="42.824527" lon="1.006594">
        <ele>1873.8</ele>
        <time>2013-04-21T16:03:18Z</time>
      </trkpt>
      <trkpt lat="42.824457" lon="1.006573">
        <ele>1879.0</ele>
        <time>2013-04-21T16:03:38Z</time>
      </trkpt>
      <trkpt lat="42.824365" lon="1.006574">
        <ele>1881.0</ele>
        <time>2013-04-21T16:03:50Z</time>
      </trkpt>
      <trkpt lat="42.824273" lon="1.006578">
        <ele>1882.9</ele>
        <time>2013-04-21T16:04:03Z</time>
      </trkpt>
      <trkpt lat="42.824185" lon="1.006619">
        <ele>1883.4</ele>
        <time>2013-04-21T16:04:13Z</time>
      </trkpt>
      <trkpt lat="42.824101" lon="1.006675">
        <ele>1883.8</ele>
        <time>2013-04-21T16:04:22Z</time>
      </trkpt>
      <trkpt lat="42.824015" lon="1.006738">
        <ele>1884.8</ele>
        <time>2013-04-21T16:04:32Z</time>
      </trkpt>
      <trkpt lat="42.823938" lon="1.006818">
        <ele>1885.8</ele>
        <time>2013-04-21T16:04:41Z</time>
      </trkpt>
      <trkpt lat="42.823877" lon="1.006906">
        <ele>1886.7</ele>
        <time>2013-04-21T16:04:50Z</time>
      </trkpt>
      <trkpt lat="42.823790" lon="1.006957">
        <ele>1887.7</ele>
        <time>2013-04-21T16:04:58Z</time>
      </trkpt>
      <trkpt lat="42.823709" lon="1.007005">
        <ele>1889.1</ele>
        <time>2013-04-21T16:05:08Z</time>
      </trkpt>
      <trkpt lat="42.823619" lon="1.007035">
        <ele>1889.6</ele>
        <time>2013-04-21T16:05:18Z</time>
      </trkpt>
      <trkpt lat="42.823587" lon="1.007095">
        <ele>1889.1</ele>
        <time>2013-04-21T16:06:09Z</time>
      </trkpt>
      <trkpt lat="42.823597" lon="1.007077">
        <ele>1889.6</ele>
        <time>2013-04-21T16:14:45Z</time>
      </trkpt>
      <trkpt lat="42.823590" lon="1.007075">
        <ele>1888.2</ele>
        <time>2013-04-21T16:27:17Z</time>
      </trkpt>
      <trkpt lat="42.823573" lon="1.007076">
        <ele>1888.7</ele>
        <time>2013-04-21T16:29:42Z</time>
      </trkpt>
      <trkpt lat="42.823496" lon="1.007145">
        <ele>1891.1</ele>
        <time>2013-04-21T16:29:57Z</time>
      </trkpt>
      <trkpt lat="42.823410" lon="1.007193">
        <ele>1893.4</ele>
        <time>2013-04-21T16:30:14Z</time>
      </trkpt>
      <trkpt lat="42.823324" lon="1.007183">
        <ele>1896.3</ele>
        <time>2013-04-21T16:30:50Z</time>
      </trkpt>
      <trkpt lat="42.823264" lon="1.007246">
        <ele>1899.7</ele>
        <time>2013-04-21T16:31:29Z</time>
      </trkpt>
      <trkpt lat="42.823171" lon="1.007272">
        <ele>1902.6</ele>
        <time>2013-04-21T16:31:45Z</time>
      </trkpt>
      <trkpt lat="42.823093" lon="1.007293">
        <ele>1905.5</ele>
        <time>2013-04-21T16:32:04Z</time>
      </trkpt>
      <trkpt lat="42.822998" lon="1.007289">
        <ele>1909.3</ele>
        <time>2013-04-21T16:32:18Z</time>
      </trkpt>
      <trkpt lat="42.822907" lon="1.007269">
        <ele>1912.7</ele>
        <time>2013-04-21T16:32:28Z</time>
      </trkpt>
      <trkpt lat="42.822811" lon="1.007275">
        <ele>1917.0</ele>
        <time>2013-04-21T16:32:47Z</time>
      </trkpt>
      <trkpt lat="42.822732" lon="1.007316">
        <ele>1919.4</ele>
        <time>2013-04-21T16:33:02Z</time>
      </trkpt>
      <trkpt lat="42.822637" lon="1.007304">
        <ele>1924.2</ele>
        <time>2013-04-21T16:33:21Z</time>
      </trkpt>
      <trkpt lat="42.822549" lon="1.007329">
        <ele>1929.0</ele>
        <time>2013-04-21T16:33:32Z</time>
      </trkpt>
      <trkpt lat="42.822462" lon="1.007378">
        <ele>1931.9</ele>
        <time>2013-04-21T16:33:42Z</time>
      </trkpt>
      <trkpt lat="42.822380" lon="1.007411">
        <ele>1934.3</ele>
        <time>2013-04-21T16:33:51Z</time>
      </trkpt>
      <trkpt lat="42.822299" lon="1.007439">
        <ele>1937.7</ele>
        <time>2013-04-21T16:34:00Z</time>
      </trkpt>
      <trkpt lat="42.822203" lon="1.007448">
        <ele>1942.0</ele>
        <time>2013-04-21T16:34:09Z</time>
      </trkpt>
      <trkpt lat="42.822107" lon="1.007442">
        <ele>1945.4</ele>
        <time>2013-04-21T16:34:18Z</time>
      </trkpt>
      <trkpt lat="42.822015" lon="1.007451">
        <ele>1947.3</ele>
        <time>2013-04-21T16:34:27Z</time>
      </trkpt>
      <trkpt lat="42.821910" lon="1.007474">
        <ele>1950.2</ele>
        <time>2013-04-21T16:34:36Z</time>
      </trkpt>
      <trkpt lat="42.821820" lon="1.007494">
        <ele>1954.0</ele>
        <time>2013-04-21T16:34:45Z</time>
      </trkpt>
      <trkpt lat="42.821731" lon="1.007520">
        <ele>1957.4</ele>
        <time>2013-04-21T16:34:53Z</time>
      </trkpt>
      <trkpt lat="42.821635" lon="1.007540">
        <ele>1960.8</ele>
        <time>2013-04-21T16:35:01Z</time>
      </trkpt>
      <trkpt lat="42.821550" lon="1.007516">
        <ele>1965.1</ele>
        <time>2013-04-21T16:35:09Z</time>
      </trkpt>
      <trkpt lat="42.821471" lon="1.007439">
        <ele>1968.9</ele>
        <time>2013-04-21T16:35:18Z</time>
      </trkpt>
      <trkpt lat="42.821374" lon="1.007412">
        <ele>1970.4</ele>
        <time>2013-04-21T16:35:27Z</time>
      </trkpt>
      <trkpt lat="42.821280" lon="1.007438">
        <ele>1973.7</ele>
        <time>2013-04-21T16:35:37Z</time>
      </trkpt>
      <trkpt lat="42.821193" lon="1.007433">
        <ele>1978.1</ele>
        <time>2013-04-21T16:35:46Z</time>
      </trkpt>
      <trkpt lat="42.821105" lon="1.007406">
        <ele>1982.4</ele>
        <time>2013-04-21T16:36:19Z</time>
      </trkpt>
      <trkpt lat="42.821020" lon="1.007383">
        <ele>1985.3</ele>
        <time>2013-04-21T16:36:29Z</time>
      </trkpt>
      <trkpt lat="42.820927" lon="1.007356">
        <ele>1988.1</ele>
        <time>2013-04-21T16:36:40Z</time>
      </trkpt>
      <trkpt lat="42.820841" lon="1.007333">
        <ele>1992.0</ele>
        <time>2013-04-21T16:36:49Z</time>
      </trkpt>
      <trkpt lat="42.820753" lon="1.007299">
        <ele>1997.8</ele>
        <time>2013-04-21T16:37:00Z</time>
      </trkpt>
      <trkpt lat="42.820673" lon="1.007238">
        <ele>2002.1</ele>
        <time>2013-04-21T16:37:11Z</time>
      </trkpt>
      <trkpt lat="42.820589" lon="1.007185">
        <ele>2008.3</ele>
        <time>2013-04-21T16:37:23Z</time>
      </trkpt>
      <trkpt lat="42.820506" lon="1.007138">
        <ele>2013.6</ele>
        <time>2013-04-21T16:37:34Z</time>
      </trkpt>
      <trkpt lat="42.820436" lon="1.007074">
        <ele>2017.9</ele>
        <time>2013-04-21T16:37:46Z</time>
      </trkpt>
      <trkpt lat="42.820372" lon="1.007003">
        <ele>2021.3</ele>
        <time>2013-04-21T16:37:55Z</time>
      </trkpt>
      <trkpt lat="42.820331" lon="1.006965">
        <ele>2020.8</ele>
        <time>2013-04-21T16:41:02Z</time>
      </trkpt>
      <trkpt lat="42.820263" lon="1.006890">
        <ele>2018.9</ele>
        <time>2013-04-21T16:41:15Z</time>
      </trkpt>
      <trkpt lat="42.820148" lon="1.006843">
        <ele>2019.5</ele>
        <time>2013-04-21T16:41:25Z</time>
      </trkpt>
      <trkpt lat="42.820063" lon="1.006795">
        <ele>2025.3</ele>
        <time>2013-04-21T16:41:42Z</time>
      </trkpt>
      <trkpt lat="42.820011" lon="1.006747">
        <ele>2030.8</ele>
        <time>2013-04-21T16:42:09Z</time>
      </trkpt>
      <trkpt lat="42.819939" lon="1.006661">
        <ele>2033.1</ele>
        <time>2013-04-21T16:42:28Z</time>
        <name>Cap de Raspe</name>
      </trkpt>
    </trkseg>
  </trk>
</gpx>

